createdAt,value
2023-04-27T09:40:30.055Z,50.58
2023-04-27T09:43:14.785Z,50.53
2023-04-27T09:45:47.335Z,50.26
2023-04-27T09:48:20.705Z,50.12
2023-04-27T09:51:19.560Z,50.29
2023-04-27T09:57:02.209Z,50.53
2023-04-27T09:59:42.608Z,50.48
2023-04-27T10:02:25.457Z,50.44
2023-04-27T10:08:28.523Z,50.84
2023-04-27T10:11:00.030Z,50.91
2023-04-27T10:13:29.126Z,50.60
2023-04-27T10:16:00.007Z,50.87
2023-04-27T10:18:31.036Z,50.86
2023-04-27T10:21:11.405Z,50.83
2023-04-27T10:23:53.205Z,50.57
2023-04-27T10:26:24.828Z,50.90
2023-04-27T10:29:07.529Z,50.90
2023-04-27T10:31:37.224Z,50.74
2023-04-27T10:34:10.680Z,50.89
2023-04-27T10:36:40.494Z,50.92
2023-04-27T10:39:32.644Z,50.99
2023-04-27T10:42:08.845Z,51.21
2023-04-27T10:44:39.086Z,51.18
2023-04-27T10:47:17.079Z,50.90
2023-04-27T10:49:45.340Z,50.91
2023-04-27T10:52:13.746Z,51.02
2023-04-27T10:54:47.656Z,51.20
2023-04-27T10:57:16.527Z,50.93
2023-04-27T10:59:53.601Z,50.99
2023-04-27T11:02:28.946Z,51.22
2023-04-27T11:04:58.701Z,51.19
2023-04-27T11:07:28.442Z,51.20
2023-04-27T11:09:58.315Z,51.38
2023-04-27T11:12:26.647Z,51.13
2023-04-27T11:14:59.557Z,51.19
2023-04-27T11:17:32.242Z,51.04
2023-04-27T11:20:00.918Z,50.29
2023-04-27T11:22:29.541Z,50.23
2023-04-27T11:24:59.641Z,50.45
2023-04-27T11:27:43.150Z,50.22
2023-04-27T11:30:23.470Z,50.25
2023-04-27T11:32:55.458Z,50.11
2023-04-27T11:35:36.970Z,49.87
2023-04-27T11:38:05.979Z,50.04
2023-04-27T11:40:41.292Z,49.88
2023-04-27T11:43:14.183Z,49.84
2023-04-27T11:45:50.656Z,49.91
2023-04-27T11:48:20.273Z,49.40
2023-04-27T11:53:18.976Z,49.43
2023-04-27T11:55:54.103Z,49.33
2023-04-27T11:58:24.084Z,49.11
2023-04-27T12:00:55.821Z,48.66
2023-04-27T12:03:32.740Z,48.76
2023-04-27T12:08:34.651Z,48.76
2023-04-27T12:11:07.167Z,48.75
2023-04-27T12:16:23.253Z,48.97
2023-04-27T12:18:59.276Z,49.03
2023-04-27T12:21:43.795Z,48.92
2023-04-27T14:05:46.472Z,45.74
2023-04-27T14:08:14.725Z,45.74
2023-04-27T14:10:43.236Z,45.95
2023-04-27T14:13:13.558Z,45.64
2023-04-27T14:15:42.591Z,45.43
2023-04-27T14:21:01.359Z,45.46
2023-04-27T14:23:29.912Z,45.49
2023-04-27T14:26:12.170Z,45.63
2023-04-27T14:28:43.221Z,45.86
2023-04-27T14:31:11.893Z,45.96
2023-04-27T14:33:40.216Z,45.79
2023-04-27T14:36:12.087Z,45.63
2023-04-27T14:38:40.452Z,45.35
2023-04-27T14:41:09.512Z,45.32
2023-04-27T14:43:37.657Z,45.67
2023-04-27T14:46:19.714Z,45.93
2023-04-27T14:48:50.078Z,45.79
2023-04-27T14:51:20.093Z,45.63
2023-04-27T14:53:48.427Z,45.58
2023-04-27T14:56:18.904Z,45.46
2023-04-27T14:58:47.425Z,45.11
2023-04-27T15:01:16.787Z,44.80
2023-04-27T15:03:45.216Z,45.19
2023-04-27T15:06:14.064Z,45.14
2023-04-27T15:08:44.626Z,45.57
2023-04-27T15:11:14.490Z,45.64
2023-04-27T15:13:47.018Z,45.30
2023-04-27T15:16:16.291Z,45.50
2023-04-27T15:18:45.274Z,45.59
2023-04-27T15:21:14.672Z,45.98
2023-04-27T15:23:45.309Z,45.97
2023-04-27T15:26:13.624Z,46.29
2023-04-27T15:28:42.017Z,46.24
2023-04-27T15:31:17.032Z,46.10
2023-04-27T15:33:45.299Z,46.72
2023-04-27T15:36:13.737Z,46.89
2023-04-27T15:38:43.470Z,46.91
2023-04-27T15:41:12.231Z,47.14
2023-04-27T15:43:40.661Z,47.30
2023-04-27T15:46:13.916Z,47.62
2023-04-27T15:48:51.222Z,47.44
2023-04-27T15:51:33.796Z,47.22
2023-04-27T15:54:06.416Z,47.07
2023-04-27T15:56:35.455Z,46.85
2023-04-27T15:59:07.146Z,47.53
2023-04-27T16:01:35.731Z,47.18
2023-04-27T16:04:04.283Z,47.20
2023-04-27T16:06:43.276Z,47.79
2023-04-27T16:16:09.378Z,48.90
2023-04-27T16:18:46.772Z,48.95
2023-04-27T16:30:55.299Z,49.73
2023-04-27T16:33:54.333Z,49.55
2023-04-27T16:53:54.456Z,49.33
2023-04-27T16:56:46.843Z,49.87
2023-04-27T16:59:30.283Z,50.17
2023-04-27T17:08:42.979Z,50.40
2023-04-27T17:14:34.465Z,50.18
2023-04-27T17:57:00.111Z,51.14
2023-04-27T17:59:29.053Z,51.49
2023-04-27T18:01:58.153Z,50.92
2023-04-27T18:32:03.108Z,51.82
2023-04-27T20:03:30.883Z,53.92
2023-04-27T20:27:18.937Z,56.08
2023-04-27T20:29:52.268Z,56.28
2023-04-27T20:32:31.029Z,56.69
2023-04-27T20:35:02.075Z,56.52
2023-04-27T20:57:49.007Z,58.60
